sensor_id;sensor_type;location;lat;lon;timestamp;temperature;humidity
14735;DHT22;7458;49.002;8.472;2023-03-02T00:00:59;3.90;97.00
14735;DHT22;7458;49.002;8.472;2023-03-02T00:03:28;3.90;97.20
14735;DHT22;7458;49.002;8.472;2023-03-02T00:05:56;3.80;97.30
14735;DHT22;7458;49.002;8.472;2023-03-02T00:08:23;3.90;97.40
14735;DHT22;7458;49.002;8.472;2023-03-02T00:10:49;3.70;97.80
14735;DHT22;7458;49.002;8.472;2023-03-02T00:13:15;3.80;97.70
14735;DHT22;7458;49.002;8.472;2023-03-02T00:15:41;3.70;97.90
14735;DHT22;7458;49.002;8.472;2023-03-02T00:18:07;3.70;98.00
14735;DHT22;7458;49.002;8.472;2023-03-02T00:20:32;3.70;98.00
14735;DHT22;7458;49.002;8.472;2023-03-02T00:23:00;3.70;98.20
14735;DHT22;7458;49.002;8.472;2023-03-02T00:25:25;3.60;98.30
14735;DHT22;7458;49.002;8.472;2023-03-02T00:27:54;3.50;98.50
14735;DHT22;7458;49.002;8.472;2023-03-02T00:30:21;3.70;98.80
14735;DHT22;7458;49.002;8.472;2023-03-02T00:32:46;3.50;98.90
14735;DHT22;7458;49.002;8.472;2023-03-02T00:35:12;3.90;99.10
14735;DHT22;7458;49.002;8.472;2023-03-02T00:37:38;3.50;99.10
14735;DHT22;7458;49.002;8.472;2023-03-02T00:40:05;3.50;99.20
14735;DHT22;7458;49.002;8.472;2023-03-02T00:42:34;3.50;99.30
14735;DHT22;7458;49.002;8.472;2023-03-02T00:45:02;3.50;99.50
14735;DHT22;7458;49.002;8.472;2023-03-02T00:47:32;3.50;99.60
14735;DHT22;7458;49.002;8.472;2023-03-02T00:49:58;3.40;99.80
14735;DHT22;7458;49.002;8.472;2023-03-02T00:52:24;3.40;99.90
14735;DHT22;7458;49.002;8.472;2023-03-02T00:54:49;3.40;99.90
14735;DHT22;7458;49.002;8.472;2023-03-02T00:57:15;3.40;99.90
14735;DHT22;7458;49.002;8.472;2023-03-02T00:59:41;3.40;99.90
14735;DHT22;7458;49.002;8.472;2023-03-02T01:02:07;3.40;99.90
14735;DHT22;7458;49.002;8.472;2023-03-02T01:04:38;3.40;99.90
14735;DHT22;7458;49.002;8.472;2023-03-02T01:07:09;3.40;99.90
14735;DHT22;7458;49.002;8.472;2023-03-02T01:09:38;3.40;99.90
14735;DHT22;7458;49.002;8.472;2023-03-02T01:12:05;3.40;99.90
14735;DHT22;7458;49.002;8.472;2023-03-02T01:14:35;3.40;99.90
14735;DHT22;7458;49.002;8.472;2023-03-02T01:17:06;3.30;99.90
14735;DHT22;7458;49.002;8.472;2023-03-02T01:19:32;3.20;99.90
14735;DHT22;7458;49.002;8.472;2023-03-02T01:21:58;3.30;99.90
14735;DHT22;7458;49.002;8.472;2023-03-02T01:24:24;3.20;99.90
14735;DHT22;7458;49.002;8.472;2023-03-02T01:26:50;3.20;99.90
14735;DHT22;7458;49.002;8.472;2023-03-02T01:29:16;3.20;99.90
14735;DHT22;7458;49.002;8.472;2023-03-02T01:31:42;3.20;99.90
14735;DHT22;7458;49.002;8.472;2023-03-02T01:34:08;3.20;99.90
14735;DHT22;7458;49.002;8.472;2023-03-02T01:36:34;3.50;99.90
14735;DHT22;7458;49.002;8.472;2023-03-02T01:39:00;3.50;99.90
14735;DHT22;7458;49.002;8.472;2023-03-02T01:41:26;3.20;99.90
14735;DHT22;7458;49.002;8.472;2023-03-02T01:43:53;3.20;99.90
14735;DHT22;7458;49.002;8.472;2023-03-02T01:46:22;3.20;99.90
14735;DHT22;7458;49.002;8.472;2023-03-02T01:49:06;3.20;99.90
14735;DHT22;7458;49.002;8.472;2023-03-02T01:51:41;3.20;99.90
14735;DHT22;7458;49.002;8.472;2023-03-02T01:54:13;3.20;99.90
14735;DHT22;7458;49.002;8.472;2023-03-02T01:56:49;3.10;99.90
14735;DHT22;7458;49.002;8.472;2023-03-02T01:59:21;3.10;99.90
14735;DHT22;7458;49.002;8.472;2023-03-02T02:01:51;3.10;99.90
14735;DHT22;7458;49.002;8.472;2023-03-02T02:04:20;3.10;99.90
14735;DHT22;7458;49.002;8.472;2023-03-02T02:06:54;3.10;99.90
14735;DHT22;7458;49.002;8.472;2023-03-02T02:09:25;3.10;99.90
14735;DHT22;7458;49.002;8.472;2023-03-02T02:11:53;3.00;99.90
14735;DHT22;7458;49.002;8.472;2023-03-02T02:14:19;3.30;99.90
14735;DHT22;7458;49.002;8.472;2023-03-02T02:16:45;3.00;99.90
14735;DHT22;7458;49.002;8.472;2023-03-02T02:19:23;2.90;99.90
14735;DHT22;7458;49.002;8.472;2023-03-02T02:22:09;3.00;99.90
14735;DHT22;7458;49.002;8.472;2023-03-02T02:24:43;3.00;99.90
14735;DHT22;7458;49.002;8.472;2023-03-02T02:27:14;2.90;99.90
14735;DHT22;7458;49.002;8.472;2023-03-02T02:29:43;2.90;99.90
14735;DHT22;7458;49.002;8.472;2023-03-02T02:32:25;2.90;99.90
14735;DHT22;7458;49.002;8.472;2023-03-02T02:35:24;2.90;99.90
14735;DHT22;7458;49.002;8.472;2023-03-02T02:37:56;2.90;99.90
14735;DHT22;7458;49.002;8.472;2023-03-02T02:40:50;2.90;99.90
14735;DHT22;7458;49.002;8.472;2023-03-02T02:43:20;2.90;99.90
14735;DHT22;7458;49.002;8.472;2023-03-02T02:45:48;2.90;99.90
14735;DHT22;7458;49.002;8.472;2023-03-02T02:48:22;2.90;99.90
14735;DHT22;7458;49.002;8.472;2023-03-02T02:50:52;3.00;99.90
14735;DHT22;7458;49.002;8.472;2023-03-02T02:56:09;2.90;99.90
14735;DHT22;7458;49.002;8.472;2023-03-02T02:58:41;3.00;99.90
14735;DHT22;7458;49.002;8.472;2023-03-02T03:01:14;3.00;99.90
14735;DHT22;7458;49.002;8.472;2023-03-02T03:03:48;2.90;99.90
14735;DHT22;7458;49.002;8.472;2023-03-02T03:06:24;3.10;99.90
14735;DHT22;7458;49.002;8.472;2023-03-02T03:08:53;2.80;99.90
14735;DHT22;7458;49.002;8.472;2023-03-02T03:11:23;2.80;99.90
14735;DHT22;7458;49.002;8.472;2023-03-02T03:14:07;2.70;99.90
14735;DHT22;7458;49.002;8.472;2023-03-02T03:16:34;2.70;99.90
14735;DHT22;7458;49.002;8.472;2023-03-02T03:21:41;2.60;99.90
14735;DHT22;7458;49.002;8.472;2023-03-02T03:24:07;2.50;99.90
14735;DHT22;7458;49.002;8.472;2023-03-02T03:26:35;2.50;99.90
14735;DHT22;7458;49.002;8.472;2023-03-02T03:29:01;2.60;99.90
14735;DHT22;7458;49.002;8.472;2023-03-02T03:31:27;2.60;99.90
14735;DHT22;7458;49.002;8.472;2023-03-02T03:33:54;2.50;99.90
14735;DHT22;7458;49.002;8.472;2023-03-02T03:36:21;2.70;99.90
14735;DHT22;7458;49.002;8.472;2023-03-02T03:38:47;2.50;99.90
14735;DHT22;7458;49.002;8.472;2023-03-02T03:41:14;2.60;99.90
14735;DHT22;7458;49.002;8.472;2023-03-02T03:43:40;2.50;99.90
14735;DHT22;7458;49.002;8.472;2023-03-02T03:46:06;2.60;99.90
14735;DHT22;7458;49.002;8.472;2023-03-02T03:48:31;2.60;99.90
14735;DHT22;7458;49.002;8.472;2023-03-02T03:50:59;2.60;99.90
14735;DHT22;7458;49.002;8.472;2023-03-02T03:53:25;2.60;99.90
14735;DHT22;7458;49.002;8.472;2023-03-02T03:55:51;2.60;99.90
14735;DHT22;7458;49.002;8.472;2023-03-02T03:58:18;2.60;99.90
14735;DHT22;7458;49.002;8.472;2023-03-02T04:00:44;2.60;99.90
14735;DHT22;7458;49.002;8.472;2023-03-02T04:03:14;2.60;99.90
14735;DHT22;7458;49.002;8.472;2023-03-02T04:05:40;2.60;99.90
14735;DHT22;7458;49.002;8.472;2023-03-02T04:08:07;0.70;99.90
14735;DHT22;7458;49.002;8.472;2023-03-02T04:10:34;2.60;99.90
14735;DHT22;7458;49.002;8.472;2023-03-02T04:13:00;2.60;99.90
14735;DHT22;7458;49.002;8.472;2023-03-02T04:15:26;2.50;99.90
14735;DHT22;7458;49.002;8.472;2023-03-02T04:17:52;2.60;99.90
14735;DHT22;7458;49.002;8.472;2023-03-02T04:20:19;2.50;99.90
14735;DHT22;7458;49.002;8.472;2023-03-02T04:22:48;2.50;99.90
14735;DHT22;7458;49.002;8.472;2023-03-02T04:25:16;2.40;99.90
14735;DHT22;7458;49.002;8.472;2023-03-02T04:27:46;2.40;99.90
14735;DHT22;7458;49.002;8.472;2023-03-02T04:30:17;2.50;99.90
14735;DHT22;7458;49.002;8.472;2023-03-02T04:32:46;2.50;99.90
14735;DHT22;7458;49.002;8.472;2023-03-02T04:35:13;2.30;99.90
14735;DHT22;7458;49.002;8.472;2023-03-02T04:37:40;2.40;99.90
14735;DHT22;7458;49.002;8.472;2023-03-02T04:40:08;2.30;99.90
14735;DHT22;7458;49.002;8.472;2023-03-02T04:42:35;2.30;99.90
14735;DHT22;7458;49.002;8.472;2023-03-02T04:45:00;2.30;99.90
14735;DHT22;7458;49.002;8.472;2023-03-02T04:47:26;2.30;99.90
14735;DHT22;7458;49.002;8.472;2023-03-02T04:49:52;2.30;99.90
14735;DHT22;7458;49.002;8.472;2023-03-02T04:52:21;2.30;99.90
14735;DHT22;7458;49.002;8.472;2023-03-02T04:54:49;2.30;99.90
14735;DHT22;7458;49.002;8.472;2023-03-02T04:57:15;2.20;99.90
14735;DHT22;7458;49.002;8.472;2023-03-02T04:59:41;2.20;99.90
14735;DHT22;7458;49.002;8.472;2023-03-02T05:02:07;2.40;99.90
14735;DHT22;7458;49.002;8.472;2023-03-02T05:04:33;2.20;99.90
14735;DHT22;7458;49.002;8.472;2023-03-02T05:06:59;2.20;99.90
14735;DHT22;7458;49.002;8.472;2023-03-02T05:09:25;2.20;99.90
14735;DHT22;7458;49.002;8.472;2023-03-02T05:11:57;2.20;99.90
14735;DHT22;7458;49.002;8.472;2023-03-02T05:14:25;2.20;99.90
14735;DHT22;7458;49.002;8.472;2023-03-02T05:16:51;2.10;99.90
14735;DHT22;7458;49.002;8.472;2023-03-02T05:19:18;2.00;99.90
14735;DHT22;7458;49.002;8.472;2023-03-02T05:21:44;2.00;99.90
14735;DHT22;7458;49.002;8.472;2023-03-02T05:24:11;2.00;99.90
14735;DHT22;7458;49.002;8.472;2023-03-02T05:26:38;1.90;99.90
14735;DHT22;7458;49.002;8.472;2023-03-02T05:29:04;1.90;99.90
14735;DHT22;7458;49.002;8.472;2023-03-02T05:31:36;1.90;99.90
14735;DHT22;7458;49.002;8.472;2023-03-02T05:34:06;1.90;99.90
14735;DHT22;7458;49.002;8.472;2023-03-02T05:36:34;1.80;99.90
14735;DHT22;7458;49.002;8.472;2023-03-02T05:39:01;2.00;99.90
14735;DHT22;7458;49.002;8.472;2023-03-02T05:41:28;1.80;99.90
14735;DHT22;7458;49.002;8.472;2023-03-02T05:43:53;1.80;99.90
14735;DHT22;7458;49.002;8.472;2023-03-02T05:46:19;1.80;99.90
14735;DHT22;7458;49.002;8.472;2023-03-02T05:48:45;1.80;99.90
14735;DHT22;7458;49.002;8.472;2023-03-02T05:51:11;2.10;99.90
14735;DHT22;7458;49.002;8.472;2023-03-02T05:53:37;1.90;99.90
14735;DHT22;7458;49.002;8.472;2023-03-02T05:56:03;1.80;99.90
14735;DHT22;7458;49.002;8.472;2023-03-02T05:58:29;1.80;99.90
14735;DHT22;7458;49.002;8.472;2023-03-02T06:00:55;1.80;99.90
14735;DHT22;7458;49.002;8.472;2023-03-02T06:03:21;2.10;99.90
14735;DHT22;7458;49.002;8.472;2023-03-02T06:05:47;1.70;99.90
14735;DHT22;7458;49.002;8.472;2023-03-02T06:08:16;3.90;99.90
14735;DHT22;7458;49.002;8.472;2023-03-02T06:10:45;2.00;99.90
14735;DHT22;7458;49.002;8.472;2023-03-02T06:13:12;1.80;99.90
14735;DHT22;7458;49.002;8.472;2023-03-02T06:15:37;1.70;99.90
14735;DHT22;7458;49.002;8.472;2023-03-02T06:18:05;1.70;99.90
14735;DHT22;7458;49.002;8.472;2023-03-02T06:20:31;1.70;99.90
14735;DHT22;7458;49.002;8.472;2023-03-02T06:22:57;1.70;99.90
14735;DHT22;7458;49.002;8.472;2023-03-02T06:25:23;1.60;99.90
14735;DHT22;7458;49.002;8.472;2023-03-02T06:27:50;2.10;99.90
14735;DHT22;7458;49.002;8.472;2023-03-02T06:30:22;1.60;99.90
14735;DHT22;7458;49.002;8.472;2023-03-02T06:32:49;1.60;99.90
14735;DHT22;7458;49.002;8.472;2023-03-02T06:35:16;1.70;99.90
14735;DHT22;7458;49.002;8.472;2023-03-02T06:37:42;1.70;99.90
14735;DHT22;7458;49.002;8.472;2023-03-02T06:40:08;1.80;99.90
14735;DHT22;7458;49.002;8.472;2023-03-02T06:42:36;1.80;99.90
14735;DHT22;7458;49.002;8.472;2023-03-02T06:45:04;1.80;99.90
14735;DHT22;7458;49.002;8.472;2023-03-02T06:47:31;1.90;99.90
14735;DHT22;7458;49.002;8.472;2023-03-02T06:49:58;2.00;99.90
14735;DHT22;7458;49.002;8.472;2023-03-02T06:52:24;2.20;99.90
14735;DHT22;7458;49.002;8.472;2023-03-02T06:54:52;2.40;99.90
14735;DHT22;7458;49.002;8.472;2023-03-02T06:57:18;2.80;99.90
14735;DHT22;7458;49.002;8.472;2023-03-02T06:59:43;2.50;99.90
14735;DHT22;7458;49.002;8.472;2023-03-02T07:02:10;2.80;99.90
14735;DHT22;7458;49.002;8.472;2023-03-02T07:04:36;2.70;99.90
14735;DHT22;7458;49.002;8.472;2023-03-02T07:07:02;3.10;99.90
14735;DHT22;7458;49.002;8.472;2023-03-02T07:09:28;3.50;99.90
14735;DHT22;7458;49.002;8.472;2023-03-02T07:11:55;3.90;99.90
14735;DHT22;7458;49.002;8.472;2023-03-02T07:14:21;4.20;99.90
14735;DHT22;7458;49.002;8.472;2023-03-02T07:16:47;4.40;99.90
14735;DHT22;7458;49.002;8.472;2023-03-02T07:19:13;4.60;99.90
14735;DHT22;7458;49.002;8.472;2023-03-02T07:21:39;4.80;99.90
14735;DHT22;7458;49.002;8.472;2023-03-02T07:24:05;4.80;99.90
14735;DHT22;7458;49.002;8.472;2023-03-02T07:26:31;5.00;99.90
14735;DHT22;7458;49.002;8.472;2023-03-02T07:28:57;4.80;99.90
14735;DHT22;7458;49.002;8.472;2023-03-02T07:31:26;4.70;99.90
14735;DHT22;7458;49.002;8.472;2023-03-02T07:33:52;4.70;99.90
14735;DHT22;7458;49.002;8.472;2023-03-02T07:36:18;4.90;99.90
14735;DHT22;7458;49.002;8.472;2023-03-02T07:38:44;5.20;99.90
14735;DHT22;7458;49.002;8.472;2023-03-02T07:41:09;5.40;99.90
14735;DHT22;7458;49.002;8.472;2023-03-02T07:43:36;5.70;99.40
14735;DHT22;7458;49.002;8.472;2023-03-02T07:46:03;5.90;98.70
14735;DHT22;7458;49.002;8.472;2023-03-02T07:48:31;6.20;98.40
14735;DHT22;7458;49.002;8.472;2023-03-02T07:50:59;6.50;98.00
14735;DHT22;7458;49.002;8.472;2023-03-02T07:53:26;6.60;96.70
14735;DHT22;7458;49.002;8.472;2023-03-02T07:55:53;6.90;96.00
14735;DHT22;7458;49.002;8.472;2023-03-02T07:58:19;6.90;95.70
14735;DHT22;7458;49.002;8.472;2023-03-02T08:00:45;7.00;95.40
14735;DHT22;7458;49.002;8.472;2023-03-02T08:03:11;7.20;95.20
14735;DHT22;7458;49.002;8.472;2023-03-02T08:05:37;7.50;94.70
14735;DHT22;7458;49.002;8.472;2023-03-02T08:08:03;7.60;93.60
14735;DHT22;7458;49.002;8.472;2023-03-02T08:10:29;7.80;93.10
14735;DHT22;7458;49.002;8.472;2023-03-02T08:12:54;7.80;92.70
14735;DHT22;7458;49.002;8.472;2023-03-02T08:15:20;7.90;92.00
14735;DHT22;7458;49.002;8.472;2023-03-02T08:17:46;8.00;91.50
14735;DHT22;7458;49.002;8.472;2023-03-02T08:20:12;7.90;91.20
14735;DHT22;7458;49.002;8.472;2023-03-02T08:22:38;8.10;91.40
14735;DHT22;7458;49.002;8.472;2023-03-02T08:25:04;8.00;90.90
14735;DHT22;7458;49.002;8.472;2023-03-02T08:27:31;8.10;90.80
14735;DHT22;7458;49.002;8.472;2023-03-02T08:29:57;8.10;90.40
14735;DHT22;7458;49.002;8.472;2023-03-02T08:32:23;8.00;90.10
14735;DHT22;7458;49.002;8.472;2023-03-02T08:34:49;8.30;90.00
14735;DHT22;7458;49.002;8.472;2023-03-02T08:37:17;8.30;88.50
14735;DHT22;7458;49.002;8.472;2023-03-02T08:39:43;8.20;87.90
14735;DHT22;7458;49.002;8.472;2023-03-02T08:42:09;8.40;88.30
14735;DHT22;7458;49.002;8.472;2023-03-02T08:44:34;8.40;88.60
14735;DHT22;7458;49.002;8.472;2023-03-02T08:47:00;8.40;88.00
14735;DHT22;7458;49.002;8.472;2023-03-02T08:49:26;8.40;87.80
14735;DHT22;7458;49.002;8.472;2023-03-02T08:51:52;8.50;87.50
14735;DHT22;7458;49.002;8.472;2023-03-02T08:54:21;8.50;86.90
14735;DHT22;7458;49.002;8.472;2023-03-02T08:56:47;8.50;87.10
14735;DHT22;7458;49.002;8.472;2023-03-02T08:59:13;8.40;86.10
14735;DHT22;7458;49.002;8.472;2023-03-02T09:01:40;8.30;85.90
14735;DHT22;7458;49.002;8.472;2023-03-02T09:04:08;8.30;86.90
14735;DHT22;7458;49.002;8.472;2023-03-02T09:06:40;8.10;87.20
14735;DHT22;7458;49.002;8.472;2023-03-02T09:09:09;8.00;87.40
14735;DHT22;7458;49.002;8.472;2023-03-02T09:11:36;7.80;87.90
14735;DHT22;7458;49.002;8.472;2023-03-02T09:14:02;7.50;88.90
14735;DHT22;7458;49.002;8.472;2023-03-02T09:16:28;7.40;89.80
14735;DHT22;7458;49.002;8.472;2023-03-02T09:18:54;7.30;90.30
14735;DHT22;7458;49.002;8.472;2023-03-02T09:21:20;7.30;90.70
14735;DHT22;7458;49.002;8.472;2023-03-02T09:23:46;7.20;91.10
14735;DHT22;7458;49.002;8.472;2023-03-02T09:26:12;7.40;90.80
14735;DHT22;7458;49.002;8.472;2023-03-02T09:28:38;7.50;90.60
14735;DHT22;7458;49.002;8.472;2023-03-02T09:31:06;7.50;90.60
14735;DHT22;7458;49.002;8.472;2023-03-02T09:33:33;7.50;90.70
14735;DHT22;7458;49.002;8.472;2023-03-02T09:35:59;7.80;91.00
14735;DHT22;7458;49.002;8.472;2023-03-02T09:38:25;8.10;90.20
14735;DHT22;7458;49.002;8.472;2023-03-02T09:43:51;8.70;88.50
14735;DHT22;7458;49.002;8.472;2023-03-02T09:49:54;9.40;84.40
14735;DHT22;7458;49.002;8.472;2023-03-02T09:52:32;9.60;84.20
14735;DHT22;7458;49.002;8.472;2023-03-02T09:55:23;9.90;85.90
14735;DHT22;7458;49.002;8.472;2023-03-02T09:57:54;9.70;82.70
14735;DHT22;7458;49.002;8.472;2023-03-02T10:00:30;9.70;82.10
14735;DHT22;7458;49.002;8.472;2023-03-02T10:03:40;9.70;81.20
14735;DHT22;7458;49.002;8.472;2023-03-02T10:06:15;9.40;82.10
14735;DHT22;7458;49.002;8.472;2023-03-02T10:08:41;9.40;82.80
14735;DHT22;7458;49.002;8.472;2023-03-02T10:14:06;9.30;83.50
14735;DHT22;7458;49.002;8.472;2023-03-02T10:19:27;9.40;84.30
14735;DHT22;7458;49.002;8.472;2023-03-02T10:22:03;9.50;83.20
14735;DHT22;7458;49.002;8.472;2023-03-02T10:27:38;9.70;82.20
14735;DHT22;7458;49.002;8.472;2023-03-02T10:32:55;9.30;81.80
14735;DHT22;7458;49.002;8.472;2023-03-02T10:35:27;9.10;83.10
14735;DHT22;7458;49.002;8.472;2023-03-02T10:38:16;9.20;83.50
14735;DHT22;7458;49.002;8.472;2023-03-02T10:40:57;9.60;83.60
14735;DHT22;7458;49.002;8.472;2023-03-02T10:43:41;9.80;82.50
14735;DHT22;7458;49.002;8.472;2023-03-02T10:46:11;10.30;82.20
14735;DHT22;7458;49.002;8.472;2023-03-02T10:51:31;10.90;79.20
14735;DHT22;7458;49.002;8.472;2023-03-02T10:54:10;11.10;76.90
14735;DHT22;7458;49.002;8.472;2023-03-02T10:56:41;11.50;76.30
14735;DHT22;7458;49.002;8.472;2023-03-02T11:02:12;12.00;75.90
14735;DHT22;7458;49.002;8.472;2023-03-02T11:07:23;12.20;72.90
14735;DHT22;7458;49.002;8.472;2023-03-02T11:12:48;12.00;71.20
14735;DHT22;7458;49.002;8.472;2023-03-02T11:20:37;12.00;70.30
14735;DHT22;7458;49.002;8.472;2023-03-02T11:25:54;12.20;71.10
14735;DHT22;7458;49.002;8.472;2023-03-02T11:31:37;12.40;70.40
14735;DHT22;7458;49.002;8.472;2023-03-02T11:34:15;12.50;70.20
14735;DHT22;7458;49.002;8.472;2023-03-02T11:50:26;12.90;67.20
14735;DHT22;7458;49.002;8.472;2023-03-02T11:52:57;12.80;67.00
14735;DHT22;7458;49.002;8.472;2023-03-02T11:55:27;12.80;68.30
14735;DHT22;7458;49.002;8.472;2023-03-02T11:58:00;12.60;67.70
14735;DHT22;7458;49.002;8.472;2023-03-02T12:05:38;12.90;65.80
14735;DHT22;7458;49.002;8.472;2023-03-02T12:08:06;12.70;67.40
14735;DHT22;7458;49.002;8.472;2023-03-02T12:13:32;13.00;68.10
14735;DHT22;7458;49.002;8.472;2023-03-02T12:16:00;13.00;67.00
14735;DHT22;7458;49.002;8.472;2023-03-02T12:18:29;12.60;66.00
14735;DHT22;7458;49.002;8.472;2023-03-02T12:21:20;12.60;66.80
14735;DHT22;7458;49.002;8.472;2023-03-02T12:31:24;12.40;66.90
14735;DHT22;7458;49.002;8.472;2023-03-02T12:33:51;12.40;66.70
14735;DHT22;7458;49.002;8.472;2023-03-02T12:36:33;11.90;66.50
14735;DHT22;7458;49.002;8.472;2023-03-02T12:48:00;12.20;68.00
14735;DHT22;7458;49.002;8.472;2023-03-02T12:50:33;12.10;67.30
14735;DHT22;7458;49.002;8.472;2023-03-02T12:53:05;12.00;67.80
14735;DHT22;7458;49.002;8.472;2023-03-02T12:55:41;12.00;68.00
14735;DHT22;7458;49.002;8.472;2023-03-02T12:58:16;12.00;69.30
14735;DHT22;7458;49.002;8.472;2023-03-02T13:00:58;11.90;68.30
14735;DHT22;7458;49.002;8.472;2023-03-02T13:03:28;11.90;68.70
14735;DHT22;7458;49.002;8.472;2023-03-02T13:06:03;11.90;69.20
14735;DHT22;7458;49.002;8.472;2023-03-02T13:08:36;11.60;69.80
14735;DHT22;7458;49.002;8.472;2023-03-02T13:11:03;11.60;70.00
14735;DHT22;7458;49.002;8.472;2023-03-02T13:13:39;11.60;70.40
14735;DHT22;7458;49.002;8.472;2023-03-02T13:16:32;11.60;70.50
14735;DHT22;7458;49.002;8.472;2023-03-02T13:19:10;11.70;70.50
14735;DHT22;7458;49.002;8.472;2023-03-02T13:21:41;11.70;70.30
14735;DHT22;7458;49.002;8.472;2023-03-02T13:24:42;11.70;70.70
14735;DHT22;7458;49.002;8.472;2023-03-02T13:27:37;11.60;70.50
14735;DHT22;7458;49.002;8.472;2023-03-02T13:30:20;11.50;70.60
14735;DHT22;7458;49.002;8.472;2023-03-02T13:33:12;11.60;70.80
14735;DHT22;7458;49.002;8.472;2023-03-02T13:35:46;11.60;70.90
14735;DHT22;7458;49.002;8.472;2023-03-02T13:38:15;11.60;71.10
14735;DHT22;7458;49.002;8.472;2023-03-02T13:43:38;11.50;71.80
14735;DHT22;7458;49.002;8.472;2023-03-02T13:46:22;11.60;71.00
14735;DHT22;7458;49.002;8.472;2023-03-02T13:49:04;11.40;71.00
14735;DHT22;7458;49.002;8.472;2023-03-02T13:51:37;11.40;71.70
14735;DHT22;7458;49.002;8.472;2023-03-02T13:54:24;11.50;72.10
14735;DHT22;7458;49.002;8.472;2023-03-02T13:56:52;11.60;71.90
14735;DHT22;7458;49.002;8.472;2023-03-02T13:59:20;11.60;71.90
14735;DHT22;7458;49.002;8.472;2023-03-02T14:01:46;11.70;71.40
14735;DHT22;7458;49.002;8.472;2023-03-02T14:04:14;11.70;71.40
14735;DHT22;7458;49.002;8.472;2023-03-02T14:06:42;11.80;71.50
14735;DHT22;7458;49.002;8.472;2023-03-02T14:09:09;11.80;71.40
14735;DHT22;7458;49.002;8.472;2023-03-02T14:11:39;11.80;71.70
14735;DHT22;7458;49.002;8.472;2023-03-02T14:14:13;12.00;74.30
14735;DHT22;7458;49.002;8.472;2023-03-02T14:16:41;11.90;71.40
14735;DHT22;7458;49.002;8.472;2023-03-02T14:19:11;11.80;71.80
14735;DHT22;7458;49.002;8.472;2023-03-02T14:21:38;11.80;74.40
14735;DHT22;7458;49.002;8.472;2023-03-02T14:24:05;11.80;72.20
14735;DHT22;7458;49.002;8.472;2023-03-02T14:26:37;11.80;72.20
14735;DHT22;7458;49.002;8.472;2023-03-02T14:29:22;11.90;71.80
14735;DHT22;7458;49.002;8.472;2023-03-02T14:31:52;11.90;71.80
14735;DHT22;7458;49.002;8.472;2023-03-02T14:34:18;11.90;72.00
14735;DHT22;7458;49.002;8.472;2023-03-02T14:36:47;11.90;71.90
14735;DHT22;7458;49.002;8.472;2023-03-02T14:39:23;11.90;71.70
14735;DHT22;7458;49.002;8.472;2023-03-02T14:41:51;12.00;71.80
14735;DHT22;7458;49.002;8.472;2023-03-02T14:44:18;11.90;70.60
14735;DHT22;7458;49.002;8.472;2023-03-02T14:46:44;11.90;71.40
14735;DHT22;7458;49.002;8.472;2023-03-02T14:49:10;11.90;71.60
14735;DHT22;7458;49.002;8.472;2023-03-02T14:51:40;11.90;72.30
14735;DHT22;7458;49.002;8.472;2023-03-02T14:54:13;11.90;71.60
14735;DHT22;7458;49.002;8.472;2023-03-02T14:56:43;11.80;71.80
14735;DHT22;7458;49.002;8.472;2023-03-02T14:59:11;11.80;72.10
14735;DHT22;7458;49.002;8.472;2023-03-02T15:01:39;11.90;72.10
14735;DHT22;7458;49.002;8.472;2023-03-02T15:04:05;11.90;71.90
14735;DHT22;7458;49.002;8.472;2023-03-02T15:06:34;11.90;72.50
14735;DHT22;7458;49.002;8.472;2023-03-02T15:09:03;11.90;71.90
14735;DHT22;7458;49.002;8.472;2023-03-02T15:11:29;11.70;72.20
14735;DHT22;7458;49.002;8.472;2023-03-02T15:13:55;11.70;72.70
14735;DHT22;7458;49.002;8.472;2023-03-02T15:16:21;11.80;72.60
14735;DHT22;7458;49.002;8.472;2023-03-02T15:18:49;11.80;72.30
14735;DHT22;7458;49.002;8.472;2023-03-02T15:21:21;11.80;72.30
14735;DHT22;7458;49.002;8.472;2023-03-02T15:23:49;11.80;72.20
14735;DHT22;7458;49.002;8.472;2023-03-02T15:26:15;11.80;72.70
14735;DHT22;7458;49.002;8.472;2023-03-02T15:28:42;11.90;72.50
14735;DHT22;7458;49.002;8.472;2023-03-02T15:31:14;11.90;72.70
14735;DHT22;7458;49.002;8.472;2023-03-02T15:33:42;11.90;72.30
14735;DHT22;7458;49.002;8.472;2023-03-02T15:36:10;11.90;71.70
14735;DHT22;7458;49.002;8.472;2023-03-02T15:38:36;11.90;71.90
14735;DHT22;7458;49.002;8.472;2023-03-02T15:41:06;11.90;72.30
14735;DHT22;7458;49.002;8.472;2023-03-02T15:43:35;11.90;73.10
14735;DHT22;7458;49.002;8.472;2023-03-02T15:46:00;12.00;72.60
14735;DHT22;7458;49.002;8.472;2023-03-02T15:48:27;11.90;72.60
14735;DHT22;7458;49.002;8.472;2023-03-02T15:51:02;11.90;73.20
14735;DHT22;7458;49.002;8.472;2023-03-02T15:53:31;11.80;72.70
14735;DHT22;7458;49.002;8.472;2023-03-02T15:55:59;11.90;73.00
14735;DHT22;7458;49.002;8.472;2023-03-02T15:58:24;11.90;72.90
14735;DHT22;7458;49.002;8.472;2023-03-02T16:00:51;11.80;72.90
14735;DHT22;7458;49.002;8.472;2023-03-02T16:03:21;11.90;73.60
14735;DHT22;7458;49.002;8.472;2023-03-02T16:05:48;11.80;72.80
14735;DHT22;7458;49.002;8.472;2023-03-02T16:08:14;11.70;73.00
14735;DHT22;7458;49.002;8.472;2023-03-02T16:10:39;11.70;73.20
14735;DHT22;7458;49.002;8.472;2023-03-02T16:13:07;11.60;73.00
14735;DHT22;7458;49.002;8.472;2023-03-02T16:15:38;11.60;72.90
14735;DHT22;7458;49.002;8.472;2023-03-02T16:18:09;11.40;73.10
14735;DHT22;7458;49.002;8.472;2023-03-02T16:20:36;11.40;73.60
14735;DHT22;7458;49.002;8.472;2023-03-02T16:23:04;11.40;73.40
14735;DHT22;7458;49.002;8.472;2023-03-02T16:25:36;11.40;73.90
14735;DHT22;7458;49.002;8.472;2023-03-02T16:28:08;11.40;74.10
14735;DHT22;7458;49.002;8.472;2023-03-02T16:30:38;11.40;74.60
14735;DHT22;7458;49.002;8.472;2023-03-02T16:33:10;11.30;73.90
14735;DHT22;7458;49.002;8.472;2023-03-02T16:35:38;11.20;74.10
14735;DHT22;7458;49.002;8.472;2023-03-02T16:38:04;11.10;73.40
14735;DHT22;7458;49.002;8.472;2023-03-02T16:40:32;11.00;74.30
14735;DHT22;7458;49.002;8.472;2023-03-02T16:42:58;11.00;75.10
14735;DHT22;7458;49.002;8.472;2023-03-02T16:45:24;10.90;74.50
14735;DHT22;7458;49.002;8.472;2023-03-02T16:47:51;10.90;74.90
14735;DHT22;7458;49.002;8.472;2023-03-02T16:50:17;10.80;75.30
14735;DHT22;7458;49.002;8.472;2023-03-02T16:52:43;10.70;75.10
14735;DHT22;7458;49.002;8.472;2023-03-02T16:55:16;10.70;74.80
14735;DHT22;7458;49.002;8.472;2023-03-02T16:57:43;10.60;75.00
14735;DHT22;7458;49.002;8.472;2023-03-02T17:00:11;10.60;75.40
14735;DHT22;7458;49.002;8.472;2023-03-02T17:02:39;10.60;75.30
14735;DHT22;7458;49.002;8.472;2023-03-02T17:05:05;10.60;75.80
14735;DHT22;7458;49.002;8.472;2023-03-02T17:07:31;10.50;76.20
14735;DHT22;7458;49.002;8.472;2023-03-02T17:09:57;10.50;76.30
14735;DHT22;7458;49.002;8.472;2023-03-02T17:12:23;10.40;76.80
14735;DHT22;7458;49.002;8.472;2023-03-02T17:14:49;10.30;77.50
14735;DHT22;7458;49.002;8.472;2023-03-02T17:17:14;10.20;78.40
14735;DHT22;7458;49.002;8.472;2023-03-02T17:19:40;9.90;79.00
14735;DHT22;7458;49.002;8.472;2023-03-02T17:22:06;9.80;79.50
14735;DHT22;7458;49.002;8.472;2023-03-02T17:24:32;9.70;80.20
14735;DHT22;7458;49.002;8.472;2023-03-02T17:26:58;9.60;80.60
14735;DHT22;7458;49.002;8.472;2023-03-02T17:29:24;9.50;81.00
14735;DHT22;7458;49.002;8.472;2023-03-02T17:31:50;9.40;81.30
14735;DHT22;7458;49.002;8.472;2023-03-02T17:34:16;9.40;81.70
14735;DHT22;7458;49.002;8.472;2023-03-02T17:36:41;9.30;81.90